Time;durP1;ratioP1;P1;durP2;ratioP2;P2;SDS_P1;SDS_P2;PMS_P1;PMS_P2;Temp;Humidity;BMP_temperature;BMP_pressure;BME280_temperature;BME280_humidity;BME280_pressure;Samples;Min_cycle;Max_cycle;Signal;HPM_P1;HPM_P2
2022/12/15 00:38:59;;;;;;;88.53;38.15;;;-3.40;99.90;;;;;;5028055;28;20095;-66
2022/12/15 00:41:24;;;;;;;87.82;38.25;;;-3.40;99.90;;;;;;5030798;28;20429;-66
2022/12/15 00:43:50;;;;;;;97.82;42.92;;;-3.50;99.90;;;;;;5030297;28;20033;-66
2022/12/15 00:49:00;;;;;;;110.38;43.03;;;-3.40;99.90;;;;;;5024300;28;20946;-66
2022/12/15 01:21:40;;;;;;;66.45;31.48;;;-3.50;99.90;;;;;;5027053;28;20032;-66
2022/12/15 01:24:06;;;;;;;81.25;34.78;;;-3.50;99.90;;;;;;5025903;28;20021;-66
2022/12/15 01:26:32;;;;;;;68.43;32.30;;;-3.40;99.90;;;;;;5028262;28;20025;-66
2022/12/15 01:28:58;;;;;;;65.20;33.70;;;-3.30;99.90;;;;;;5026585;28;20049;-66
2022/12/15 01:31:24;;;;;;;76.30;34.25;;;-3.40;99.90;;;;;;5025102;28;20390;-66
2022/12/15 01:33:53;;;;;;;71.55;34.47;;;-3.40;99.90;;;;;;5025497;28;20033;-66
2022/12/15 01:36:18;;;;;;;78.40;35.85;;;-3.40;99.90;;;;;;5028320;28;20030;-66
2022/12/15 01:38:44;;;;;;;68.50;33.78;;;-3.30;99.90;;;;;;5022290;28;20047;-66
2022/12/15 01:41:11;;;;;;;73.97;32.25;;;-3.30;99.90;;;;;;5026648;28;20057;-66
2022/12/15 01:43:39;;;;;;;74.32;34.30;;;-3.40;99.90;;;;;;5020311;28;20099;-66
2022/12/15 01:46:04;;;;;;;73.25;33.42;;;-3.40;99.90;;;;;;5027671;28;20024;-66
2022/12/15 01:48:38;;;;;;;69.88;30.98;;;-3.40;99.90;;;;;;5028329;28;20034;-66
2022/12/15 01:51:11;;;;;;;77.47;30.95;;;-3.50;99.90;;;;;;5030374;28;20389;-66
2022/12/15 01:53:42;;;;;;;67.15;31.40;;;-3.40;99.90;;;;;;5026670;28;20420;-65
2022/12/15 01:56:09;;;;;;;70.60;30.35;;;-3.40;99.90;;;;;;5027458;28;20022;-66
2022/12/15 01:58:36;;;;;;;67.95;30.25;;;-3.40;99.90;;;;;;5024937;28;20018;-66
2022/12/15 02:01:02;;;;;;;70.10;31.30;;;-3.40;99.90;;;;;;5030077;28;20590;-66
2022/12/15 02:03:30;;;;;;;69.93;31.40;;;-3.30;99.90;;;;;;5029276;28;20117;-66
2022/12/15 02:05:58;;;;;;;70.78;32.40;;;-3.30;99.90;;;;;;5026275;28;20425;-66
2022/12/15 02:08:24;;;;;;;70.70;29.65;;;-3.30;99.90;;;;;;5029061;28;20033;-66
2022/12/15 02:11:16;;;;;;;65.03;29.55;;;-3.30;99.90;;;;;;5025787;28;20036;-66
2022/12/15 02:14:00;;;;;;;64.63;30.10;;;-3.30;99.90;;;;;;5026058;28;20026;-66
2022/12/15 02:16:47;;;;;;;67.38;29.15;;;-3.30;99.90;;;;;;5028827;28;20049;-66
2022/12/15 02:19:31;;;;;;;70.03;31.02;;;-3.40;99.90;;;;;;5025064;28;20029;-66
2022/12/15 02:22:15;;;;;;;65.78;30.88;;;-3.30;99.90;;;;;;5030600;28;20029;-66
2022/12/15 02:24:53;;;;;;;66.63;30.42;;;-3.30;99.90;;;;;;5030890;28;20036;-66
2022/12/15 02:27:36;;;;;;;71.95;31.05;;;-3.20;99.90;;;;;;5032169;28;20025;-66
2022/12/15 02:30:33;;;;;;;72.93;31.58;;;-3.20;99.90;;;;;;5025981;28;20136;-66
2022/12/15 02:33:04;;;;;;;71.20;30.48;;;-3.20;99.90;;;;;;5028710;28;20021;-66
2022/12/15 02:35:40;;;;;;;70.35;29.08;;;-3.20;99.90;;;;;;5030918;28;20017;-66
2022/12/15 02:38:08;;;;;;;64.18;29.75;;;-3.20;99.90;;;;;;5023833;28;20033;-66
2022/12/15 02:40:34;;;;;;;70.80;29.67;;;-3.20;99.90;;;;;;5027362;28;20033;-66
2022/12/15 02:43:02;;;;;;;68.10;29.77;;;-3.20;99.90;;;;;;5031451;28;20059;-66
2022/12/15 02:45:39;;;;;;;62.13;30.05;;;-3.20;99.90;;;;;;5026287;28;20072;-66
2022/12/15 02:48:17;;;;;;;63.45;29.45;;;-3.20;99.90;;;;;;5025710;28;20087;-66
2022/12/15 02:50:49;;;;;;;61.70;29.80;;;-3.20;99.90;;;;;;5020445;28;20053;-67
2022/12/15 02:53:46;;;;;;;64.78;30.02;;;-3.20;99.90;;;;;;5023346;28;20029;-66
2022/12/15 02:56:22;;;;;;;66.57;29.23;;;-3.20;99.90;;;;;;5022432;28;20026;-66
2022/12/15 02:59:11;;;;;;;62.72;28.30;;;-3.20;99.90;;;;;;5026753;28;20026;-66
2022/12/15 03:01:48;;;;;;;60.78;27.92;;;-3.20;99.90;;;;;;5021024;28;20164;-66
2022/12/15 03:04:15;;;;;;;60.60;28.25;;;-3.10;99.90;;;;;;5023547;28;21746;-66
2022/12/15 03:06:41;;;;;;;61.85;28.95;;;-3.10;99.90;;;;;;5021847;28;20018;-66
2022/12/15 03:09:06;;;;;;;57.78;28.33;;;-3.10;99.90;;;;;;5026067;28;20040;-66
2022/12/15 03:11:32;;;;;;;69.53;28.27;;;-3.10;99.90;;;;;;5023518;28;20139;-66
2022/12/15 03:13:58;;;;;;;66.75;28.67;;;-3.10;99.90;;;;;;5025158;28;20030;-66
2022/12/15 03:16:24;;;;;;;59.53;28.55;;;-3.20;99.90;;;;;;5015569;28;20034;-66
2022/12/15 03:18:51;;;;;;;69.85;29.67;;;-3.10;99.90;;;;;;5025195;28;20035;-66
2022/12/15 03:21:16;;;;;;;65.47;30.17;;;-3.10;99.90;;;;;;5026675;28;20369;-66
2022/12/15 03:23:42;;;;;;;60.47;29.95;;;-3.30;99.90;;;;;;5021092;28;20040;-66
2022/12/15 03:26:07;;;;;;;70.20;30.50;;;-3.20;99.90;;;;;;5029016;28;20123;-66
2022/12/15 03:28:33;;;;;;;70.18;30.42;;;-3.30;99.90;;;;;;5022363;28;20033;-66
2022/12/15 03:30:59;;;;;;;72.63;29.23;;;-3.30;99.90;;;;;;5021953;28;20036;-66
2022/12/15 03:33:24;;;;;;;69.15;29.85;;;-3.30;99.90;;;;;;5023634;28;20383;-66
2022/12/15 03:35:50;;;;;;;64.43;29.70;;;-3.30;99.90;;;;;;5031970;28;20034;-66
2022/12/15 03:38:17;;;;;;;65.85;30.35;;;-3.20;99.90;;;;;;5017721;28;20028;-66
2022/12/15 03:40:42;;;;;;;61.47;29.38;;;-3.20;99.90;;;;;;5027933;28;20021;-66
2022/12/15 03:43:08;;;;;;;64.55;29.90;;;-3.10;99.90;;;;;;5021162;28;20371;-67
2022/12/15 03:45:33;;;;;;;61.22;28.35;;;-3.10;99.90;;;;;;5024073;28;20654;-66
2022/12/15 03:47:59;;;;;;;62.17;27.88;;;-3.10;99.90;;;;;;5025331;28;20033;-66
2022/12/15 03:50:27;;;;;;;62.33;28.95;;;-3.10;99.90;;;;;;5029323;28;20042;-66
2022/12/15 03:52:59;;;;;;;65.65;28.70;;;-3.10;99.90;;;;;;5024275;28;20029;-66
2022/12/15 03:55:25;;;;;;;62.75;29.27;;;-3.10;99.90;;;;;;5030330;28;20066;-66
2022/12/15 03:57:51;;;;;;;66.32;29.17;;;-3.10;99.90;;;;;;5028005;28;20064;-66
2022/12/15 04:00:18;;;;;;;67.05;31.70;;;-3.10;99.90;;;;;;5027925;28;20105;-66
2022/12/15 04:02:46;;;;;;;66.13;30.15;;;-3.10;99.90;;;;;;5018839;28;20483;-66
2022/12/15 04:05:16;;;;;;;66.15;32.15;;;-3.00;99.90;;;;;;5029272;28;20482;-66
2022/12/15 04:07:41;;;;;;;59.22;29.52;;;-3.00;99.90;;;;;;5022754;28;20021;-66
2022/12/15 04:10:08;;;;;;;61.90;29.13;;;-3.10;99.90;;;;;;5028177;28;20052;-66
2022/12/15 04:12:33;;;;;;;59.30;28.70;;;-3.20;99.90;;;;;;5031882;28;20362;-66
2022/12/15 04:14:59;;;;;;;60.00;28.42;;;-3.20;99.90;;;;;;5027255;28;20032;-66
2022/12/15 04:17:24;;;;;;;62.55;27.30;;;-3.30;99.90;;;;;;5027304;28;20547;-66
2022/12/15 04:20:08;;;;;;;71.28;30.75;;;-3.30;99.90;;;;;;5033595;28;20034;-66
2022/12/15 04:22:46;;;;;;;62.58;30.80;;;-3.30;99.90;;;;;;5026288;28;20066;-66
2022/12/15 05:33:55;;;;;;;64.60;28.67;;;-3.40;99.90;;;;;;5023489;28;20045;-66
2022/12/15 05:36:22;;;;;;;61.53;28.60;;;-3.40;99.90;;;;;;5027881;28;20030;-66
2022/12/15 05:38:52;;;;;;;63.65;27.75;;;-3.40;99.90;;;;;;5031322;28;20018;-66
2022/12/15 05:41:19;;;;;;;58.50;27.27;;;-3.40;99.90;;;;;;5031095;28;20025;-66
2022/12/15 05:43:45;;;;;;;61.45;27.70;;;-3.50;99.90;;;;;;5018383;28;20377;-66
2022/12/15 05:46:11;;;;;;;63.05;29.15;;;-3.50;99.90;;;;;;5027451;28;20033;-67
2022/12/15 05:48:37;;;;;;;53.05;28.23;;;-3.50;99.90;;;;;;5029885;28;20046;-66
2022/12/15 05:51:07;;;;;;;57.97;29.48;;;-3.40;99.90;;;;;;5025284;28;20055;-66
2022/12/15 05:53:34;;;;;;;60.85;27.35;;;-3.40;99.90;;;;;;5018018;28;20060;-66
2022/12/15 05:56:01;;;;;;;53.08;26.30;;;-3.30;99.90;;;;;;5027678;28;20025;-66
2022/12/15 05:58:26;;;;;;;54.60;24.77;;;-3.30;99.90;;;;;;5022090;28;20044;-66
2022/12/15 06:00:52;;;;;;;58.50;26.30;;;-3.30;99.90;;;;;;5025704;28;20010;-66
2022/12/15 06:03:17;;;;;;;53.30;27.13;;;-3.30;99.90;;;;;;5022027;28;20026;-66
2022/12/15 06:05:43;;;;;;;53.25;25.38;;;-3.30;99.90;;;;;;5025160;28;20018;-66
2022/12/15 06:08:09;;;;;;;59.42;26.38;;;-3.30;99.90;;;;;;5029267;28;20020;-66
2022/12/15 06:10:34;;;;;;;55.72;26.50;;;-3.30;99.90;;;;;;5019367;28;20398;-66
2022/12/15 06:13:00;;;;;;;57.28;26.92;;;-3.40;99.90;;;;;;5018938;28;20026;-66
2022/12/15 06:15:27;;;;;;;62.28;27.73;;;-3.40;99.90;;;;;;5019247;28;20044;-66
2022/12/15 06:17:54;;;;;;;60.28;29.27;;;-3.40;99.90;;;;;;5029903;28;20022;-66
2022/12/15 06:20:20;;;;;;;52.40;25.25;;;-3.40;99.90;;;;;;5016320;28;20026;-66
2022/12/15 06:22:45;;;;;;;53.30;25.08;;;-3.40;99.90;;;;;;5025386;28;20021;-66
2022/12/15 06:25:11;;;;;;;52.25;24.42;;;-3.40;99.90;;;;;;5023224;28;20481;-66
2022/12/15 06:27:36;;;;;;;49.38;24.38;;;-3.40;99.90;;;;;;5023943;28;20025;-67
2022/12/15 06:30:03;;;;;;;63.35;27.80;;;-3.40;99.90;;;;;;5025099;28;20485;-66
2022/12/15 06:32:28;;;;;;;61.63;26.98;;;-3.40;99.90;;;;;;5026950;28;20034;-66
2022/12/15 06:34:54;;;;;;;53.95;24.98;;;-3.40;99.90;;;;;;5024477;28;20464;-66
2022/12/15 06:37:20;;;;;;;56.78;27.25;;;-3.30;99.90;;;;;;5021275;28;20041;-66
2022/12/15 06:39:45;;;;;;;57.60;27.13;;;-3.40;99.90;;;;;;5023624;28;20455;-66
2022/12/15 06:42:11;;;;;;;60.28;29.27;;;-3.40;99.90;;;;;;5024947;28;20061;-66
2022/12/15 06:44:36;;;;;;;59.28;28.30;;;-3.50;99.90;;;;;;5026919;28;20049;-66
2022/12/15 06:47:02;;;;;;;60.47;28.13;;;-3.50;99.90;;;;;;5026024;28;20037;-66
2022/12/15 06:49:28;;;;;;;52.38;26.20;;;-3.50;99.90;;;;;;5023269;28;20120;-66
2022/12/15 06:51:53;;;;;;;55.67;27.23;;;-3.50;99.90;;;;;;5024824;28;20030;-66
2022/12/15 06:54:19;;;;;;;59.15;26.45;;;-3.50;99.90;;;;;;5020149;28;20025;-66
2022/12/15 06:56:44;;;;;;;55.90;25.48;;;-3.50;99.90;;;;;;5029846;28;20025;-66
2022/12/15 06:59:11;;;;;;;49.90;25.25;;;-3.40;99.90;;;;;;5031521;28;20071;-66
2022/12/15 07:01:37;;;;;;;55.83;25.05;;;-3.50;99.90;;;;;;5026619;28;20048;-66
2022/12/15 07:04:04;;;;;;;57.67;26.20;;;-3.40;99.90;;;;;;5024450;28;20022;-66
2022/12/15 07:06:37;;;;;;;53.55;24.70;;;-3.50;99.90;;;;;;5027739;28;20018;-66
2022/12/15 07:09:06;;;;;;;54.67;24.83;;;-3.60;99.90;;;;;;5027141;28;20111;-66
2022/12/15 07:11:31;;;;;;;54.97;25.30;;;-3.60;99.90;;;;;;5021806;28;20033;-66
2022/12/15 07:13:57;;;;;;;55.13;24.50;;;-3.60;99.90;;;;;;5022777;28;20037;-66
2022/12/15 07:16:23;;;;;;;53.55;24.88;;;-3.60;99.90;;;;;;5021792;28;20037;-66
2022/12/15 07:18:49;;;;;;;58.45;25.27;;;-3.60;99.90;;;;;;5017979;28;20026;-66
2022/12/15 07:21:15;;;;;;;60.20;26.67;;;-3.50;99.90;;;;;;5014533;28;20134;-66
2022/12/15 07:23:40;;;;;;;56.08;24.58;;;-3.50;99.90;;;;;;5025663;28;20036;-66
2022/12/15 07:26:08;;;;;;;56.83;24.63;;;-3.50;99.90;;;;;;5022149;28;20028;-66
2022/12/15 07:28:34;;;;;;;49.75;23.88;;;-3.50;99.90;;;;;;5021641;28;20026;-66
2022/12/15 07:31:06;;;;;;;53.53;23.23;;;-3.40;99.90;;;;;;5023267;28;20728;-66
2022/12/15 07:33:33;;;;;;;44.88;18.83;;;-3.60;99.90;;;;;;5024842;28;20141;-66
2022/12/15 07:35:59;;;;;;;58.75;24.70;;;-3.70;99.90;;;;;;5029926;28;20104;-66
2022/12/15 07:38:26;;;;;;;52.22;25.25;;;-3.70;99.90;;;;;;5028047;28;20029;-66
2022/12/15 07:40:52;;;;;;;59.85;27.33;;;-3.70;99.90;;;;;;5027644;28;20022;-66
2022/12/15 07:43:17;;;;;;;62.55;29.17;;;-3.80;99.90;;;;;;5035563;28;20035;-66
2022/12/15 07:45:43;;;;;;;61.65;29.17;;;-3.80;99.90;;;;;;5025749;28;20037;-66
2022/12/15 07:48:09;;;;;;;65.28;30.88;;;-3.80;99.90;;;;;;5031060;28;20029;-66
2022/12/15 07:50:38;;;;;;;68.13;30.85;;;-3.90;99.90;;;;;;5029169;28;20048;-66
2022/12/15 07:53:04;;;;;;;58.80;28.05;;;-3.90;99.90;;;;;;5028124;28;20017;-65
2022/12/15 07:55:30;;;;;;;56.88;28.08;;;-3.70;99.90;;;;;;5026751;28;20452;-65
2022/12/15 07:57:56;;;;;;;56.50;27.13;;;-3.70;99.90;;;;;;5026288;28;20022;-66
2022/12/15 08:00:21;;;;;;;61.78;27.42;;;-3.70;99.90;;;;;;5025443;28;20370;-66
2022/12/15 08:02:47;;;;;;;58.35;26.88;;;-3.60;99.90;;;;;;5032546;28;20017;-66
2022/12/15 08:05:14;;;;;;;58.78;26.98;;;-3.60;99.90;;;;;;5021584;28;20382;-66
2022/12/15 08:07:40;;;;;;;57.60;27.45;;;-3.60;99.90;;;;;;5029129;28;20028;-66
2022/12/15 08:10:06;;;;;;;55.40;26.92;;;-3.70;99.90;;;;;;5026430;28;21041;-66
2022/12/15 08:12:32;;;;;;;58.45;27.55;;;-3.70;99.90;;;;;;5026203;28;20025;-66
2022/12/15 08:14:57;;;;;;;56.15;25.98;;;-3.70;99.90;;;;;;5033569;28;20036;-66
2022/12/15 08:17:23;;;;;;;54.65;26.48;;;-3.70;99.90;;;;;;5023261;28;20056;-66
2022/12/15 08:19:48;;;;;;;57.95;27.23;;;-3.80;99.90;;;;;;5032729;28;20029;-67
2022/12/15 08:22:14;;;;;;;59.30;27.52;;;-3.70;99.90;;;;;;5031578;28;20107;-66
2022/12/15 08:24:40;;;;;;;55.58;26.90;;;-3.70;99.90;;;;;;5024483;28;20028;-66
2022/12/15 08:27:07;;;;;;;58.88;25.38;;;-3.60;99.90;;;;;;5025182;28;20029;-66
2022/12/15 08:29:32;;;;;;;62.53;27.10;;;-3.60;99.90;;;;;;5022367;28;20048;-66
2022/12/15 08:31:58;;;;;;;56.97;25.88;;;-3.60;99.90;;;;;;5025596;28;20029;-66
2022/12/15 08:34:23;;;;;;;54.38;25.00;;;-3.60;99.90;;;;;;5023874;28;20107;-66
2022/12/15 08:36:49;;;;;;;71.60;28.52;;;-3.60;99.90;;;;;;5030892;28;20056;-64
2022/12/15 08:39:15;;;;;;;60.65;28.73;;;-3.60;99.90;;;;;;5027117;28;20021;-65
2022/12/15 08:41:41;;;;;;;58.35;27.23;;;-3.50;99.90;;;;;;5030601;28;20025;-66
2022/12/15 08:44:06;;;;;;;56.83;27.70;;;-3.50;99.90;;;;;;5029398;28;20028;-64
2022/12/15 08:46:34;;;;;;;63.25;28.38;;;-3.50;99.90;;;;;;5031614;28;20107;-64
2022/12/15 08:49:00;;;;;;;65.88;28.95;;;-3.50;99.90;;;;;;5034803;28;20412;-65
2022/12/15 08:51:29;;;;;;;70.82;31.50;;;-3.40;99.90;;;;;;5034857;28;20124;-65
2022/12/15 08:53:56;;;;;;;82.43;33.97;;;-3.40;99.90;;;;;;5027808;28;20736;-65
2022/12/15 08:56:23;;;;;;;81.95;34.72;;;-3.40;99.90;;;;;;5027797;28;20030;-65
2022/12/15 08:58:53;;;;;;;80.20;36.65;;;-3.40;99.90;;;;;;5031318;28;20026;-65
2022/12/15 09:01:21;;;;;;;90.03;35.97;;;-3.50;99.90;;;;;;5021223;28;20025;-65
2022/12/15 09:03:47;;;;;;;89.72;41.03;;;-3.40;99.90;;;;;;5027799;28;20017;-65
2022/12/15 09:06:16;;;;;;;93.45;43.22;;;-3.40;99.90;;;;;;5026740;28;20544;-65
2022/12/15 09:08:42;;;;;;;82.63;35.25;;;-3.30;99.90;;;;;;5031141;28;20018;-65
2022/12/15 09:11:07;;;;;;;93.85;37.35;;;-3.20;99.90;;;;;;5018881;28;20034;-65
2022/12/15 09:13:33;;;;;;;91.10;35.38;;;-3.20;99.90;;;;;;5030715;28;20454;-65
2022/12/15 09:16:00;;;;;;;80.68;34.20;;;-3.20;99.90;;;;;;5019796;28;20041;-65
2022/12/15 09:18:26;;;;;;;78.53;32.92;;;-3.10;99.90;;;;;;5019856;28;20033;-65
2022/12/15 09:20:52;;;;;;;72.10;32.15;;;-3.10;99.90;;;;;;5021535;28;20478;-65
2022/12/15 09:23:18;;;;;;;74.82;32.45;;;-3.00;99.90;;;;;;5020361;28;20028;-66
2022/12/15 09:25:45;;;;;;;75.60;33.33;;;-3.00;99.90;;;;;;5021458;28;20029;-66
2022/12/15 09:28:11;;;;;;;77.55;31.70;;;-2.90;99.90;;;;;;5019905;28;20033;-66
2022/12/15 09:30:36;;;;;;;67.05;30.50;;;-2.80;99.90;;;;;;5026845;28;20033;-66
2022/12/15 09:33:02;;;;;;;71.00;32.78;;;-2.80;99.90;;;;;;5028992;28;20020;-66
2022/12/15 09:35:28;;;;;;;74.57;34.20;;;-2.70;99.90;;;;;;5017742;28;20536;-65
2022/12/15 09:37:56;;;;;;;74.40;34.42;;;-2.70;99.90;;;;;;5025265;28;20305;-66
2022/12/15 09:40:23;;;;;;;78.38;36.40;;;-2.60;99.90;;;;;;5021534;28;20065;-66
2022/12/15 09:42:53;;;;;;;82.93;37.70;;;-2.50;99.90;;;;;;5024295;28;20045;-67
2022/12/15 09:45:24;;;;;;;77.50;37.92;;;-2.50;99.90;;;;;;5022724;28;20040;-67
2022/12/15 09:48:04;;;;;;;77.97;37.78;;;-2.50;99.90;;;;;;5020286;28;20113;-66
2022/12/15 09:50:35;;;;;;;75.05;37.92;;;-2.50;99.90;;;;;;5015001;28;20037;-66
2022/12/15 09:53:02;;;;;;;86.80;39.65;;;-2.40;99.90;;;;;;5029908;28;20437;-68
2022/12/15 09:55:29;;;;;;;83.40;37.88;;;-2.40;99.90;;;;;;5021598;28;20022;-68
2022/12/15 09:57:57;;;;;;;83.05;38.80;;;-2.20;99.90;;;;;;5026718;28;20060;-68
2022/12/15 10:00:55;;;;;;;93.15;41.60;;;-2.10;99.90;;;;;;5020292;28;20034;-68
2022/12/15 10:03:37;;;;;;;84.38;39.97;;;-2.00;99.90;;;;;;5025235;28;20014;-68
2022/12/15 10:06:17;;;;;;;81.75;37.67;;;-1.90;99.90;;;;;;5038288;28;20375;-68
2022/12/15 10:08:57;;;;;;;79.05;37.55;;;-1.80;99.90;;;;;;5022464;28;20039;-68
2022/12/15 10:11:37;;;;;;;90.82;39.42;;;-1.70;99.90;;;;;;5029713;28;20474;-66
2022/12/15 10:14:25;;;;;;;90.65;40.55;;;-1.70;99.90;;;;;;5020742;28;20045;-65
2022/12/15 10:17:05;;;;;;;85.85;39.90;;;-1.60;99.90;;;;;;5025191;28;20389;-65
2022/12/15 10:19:52;;;;;;;81.90;38.03;;;-1.50;99.90;;;;;;5019219;28;20037;-66
2022/12/15 10:22:24;;;;;;;84.10;40.50;;;-1.40;99.90;;;;;;5022861;28;20040;-66
2022/12/15 10:24:51;;;;;;;80.78;38.72;;;-1.30;99.90;;;;;;5025591;28;20147;-66
2022/12/15 10:27:34;;;;;;;84.60;38.17;;;-1.20;99.90;;;;;;5025191;28;20021;-66
2022/12/15 10:30:06;;;;;;;80.72;38.63;;;-1.10;99.90;;;;;;5023844;28;20037;-67
2022/12/15 10:32:49;;;;;;;84.85;39.78;;;-1.10;99.90;;;;;;5023977;28;20453;-66
2022/12/15 10:35:24;;;;;;;83.85;39.28;;;-1.10;99.90;;;;;;5027154;28;20025;-66
2022/12/15 10:37:49;;;;;;;86.07;40.30;;;-0.90;99.90;;;;;;5022907;28;20417;-66
2022/12/15 10:40:39;;;;;;;77.70;36.85;;;-0.90;99.90;;;;;;5033104;28;20036;-65
2022/12/15 10:43:23;;;;;;;90.13;41.30;;;-0.90;99.90;;;;;;5028123;28;20108;-66
2022/12/15 10:46:19;;;;;;;84.00;38.88;;;-0.80;99.90;;;;;;5022942;28;20038;-65
2022/12/15 10:48:50;;;;;;;86.53;40.03;;;-0.70;99.90;;;;;;5026429;28;20084;-65
2022/12/15 10:51:25;;;;;;;87.22;41.42;;;-0.60;99.90;;;;;;5024367;28;20112;-66
2022/12/15 10:54:14;;;;;;;83.93;39.75;;;-0.60;99.90;;;;;;5026207;28;20112;-66
2022/12/15 10:56:56;;;;;;;84.22;41.40;;;-0.50;99.90;;;;;;5020992;28;20400;-66
2022/12/15 10:59:27;;;;;;;84.68;40.33;;;-0.50;99.90;;;;;;5024240;28;20025;-66
2022/12/15 11:01:52;;;;;;;93.97;43.78;;;-0.50;99.90;;;;;;5029057;28;20116;-66
2022/12/15 11:04:32;;;;;;;80.28;39.85;;;-0.60;99.90;;;;;;5026988;28;20157;-68
2022/12/15 11:07:01;;;;;;;84.25;38.80;;;-0.60;99.90;;;;;;5031238;28;20032;-66
2022/12/15 11:09:37;;;;;;;81.65;41.35;;;-0.40;99.90;;;;;;5010059;28;20681;-66
2022/12/15 11:12:50;;;;;;;78.05;38.92;;;-0.40;99.90;;;;;;5021444;28;20037;-67
2022/12/15 11:15:22;;;;;;;86.97;41.20;;;-0.50;99.90;;;;;;5035239;28;20052;-67
2022/12/15 11:18:05;;;;;;;82.15;39.78;;;-0.40;99.90;;;;;;5022299;28;20040;-67
2022/12/15 11:20:36;;;;;;;87.68;40.35;;;-0.40;99.90;;;;;;5035899;28;20025;-64
2022/12/15 11:23:10;;;;;;;90.53;43.00;;;-0.30;99.90;;;;;;5037681;28;20166;-67
2022/12/15 11:25:42;;;;;;;88.38;41.28;;;-0.30;99.90;;;;;;5040410;28;20493;-66
2022/12/15 11:28:22;;;;;;;84.30;40.72;;;-0.30;99.90;;;;;;5032723;28;20048;-66
2022/12/15 11:30:59;;;;;;;87.50;41.42;;;-0.20;99.90;;;;;;5037902;28;20032;-66
2022/12/15 11:33:24;;;;;;;92.28;41.40;;;-0.10;99.90;;;;;;5026444;28;20055;-66
2022/12/15 11:36:24;;;;;;;88.97;40.90;;;-0.20;99.90;;;;;;5041677;28;20454;-66
2022/12/15 11:38:59;;;;;;;81.43;38.42;;;-0.10;99.90;;;;;;5035533;28;20509;-66
2022/12/15 11:42:00;;;;;;;84.30;39.67;;;-0.10;99.90;;;;;;5038965;28;20029;-66
2022/12/15 11:44:34;;;;;;;90.07;44.65;;;-0.10;99.90;;;;;;5011266;28;20394;-66
2022/12/15 11:47:12;;;;;;;80.18;41.28;;;-0.10;99.90;;;;;;5034517;28;20029;-67
2022/12/15 11:50:03;;;;;;;82.25;40.85;;;0.00;99.90;;;;;;5019700;28;20038;-66
2022/12/15 11:52:50;;;;;;;78.50;37.97;;;0.10;99.90;;;;;;5022749;28;20014;-66
2022/12/15 11:55:40;;;;;;;75.38;37.88;;;0.10;99.90;;;;;;5028358;28;20037;-67
2022/12/15 11:58:30;;;;;;;75.45;34.92;;;0.10;99.90;;;;;;5028570;28;20442;-66
2022/12/15 12:01:22;;;;;;;83.63;39.72;;;0.10;99.90;;;;;;5029178;28;20374;-66
2022/12/15 12:04:18;;;;;;;82.40;40.15;;;0.30;99.90;;;;;;5028281;28;20034;-66
2022/12/15 12:07:05;;;;;;;84.63;39.00;;;0.30;99.90;;;;;;5033685;28;20022;-67
2022/12/15 12:09:38;;;;;;;87.55;40.20;;;0.40;99.90;;;;;;5028819;28;20144;-66
2022/12/15 12:12:12;;;;;;;80.00;40.03;;;0.40;99.90;;;;;;5032371;28;20144;-66
2022/12/15 12:14:55;;;;;;;82.50;41.72;;;0.40;99.90;;;;;;5025938;28;20430;-67
2022/12/15 12:17:30;;;;;;;80.85;40.42;;;0.40;99.90;;;;;;5029883;28;20124;-67
2022/12/15 12:20:04;;;;;;;92.50;41.40;;;0.40;99.90;;;;;;5029893;28;20400;-66
2022/12/15 12:22:38;;;;;;;76.80;38.15;;;0.40;99.90;;;;;;5032811;28;20100;-66
2022/12/15 12:25:20;;;;;;;93.90;40.33;;;0.50;99.90;;;;;;5021349;28;20486;-67
2022/12/15 12:27:52;;;;;;;83.72;40.17;;;0.50;99.90;;;;;;5027254;28;20458;-66
2022/12/15 12:30:23;;;;;;;;;;;0.50;99.90;;;;;;5028883;28;20501;-66
2022/12/15 12:33:20;;;;;;;115.65;39.85;;;0.50;99.90;;;;;;5025265;28;19909;-67
2022/12/15 12:35:55;;;;;;;84.45;36.58;;;0.60;99.90;;;;;;5027662;28;20034;-66
2022/12/15 12:38:29;;;;;;;76.07;37.33;;;0.60;99.90;;;;;;5028658;28;20158;-66
2022/12/15 12:41:20;;;;;;;90.13;40.58;;;0.70;99.90;;;;;;5024381;28;20018;-66
2022/12/15 12:43:59;;;;;;;80.28;40.55;;;0.70;99.90;;;;;;5031372;28;20030;-66
2022/12/15 12:46:36;;;;;;;90.63;39.45;;;0.70;99.90;;;;;;5007986;28;20057;-66
2022/12/15 12:49:42;;;;;;;82.38;38.33;;;0.70;99.90;;;;;;5027621;28;20033;-66
2022/12/15 12:52:32;;;;;;;81.53;38.75;;;0.70;99.90;;;;;;5026309;28;20064;-67
2022/12/15 12:55:11;;;;;;;72.55;37.50;;;0.70;99.90;;;;;;5027375;28;20021;-66
2022/12/15 12:57:38;;;;;;;79.70;38.63;;;0.80;99.90;;;;;;5028961;28;20017;-66
2022/12/15 13:00:07;;;;;;;71.60;36.15;;;0.80;99.90;;;;;;5029110;28;20160;-67
2022/12/15 13:02:38;;;;;;;82.20;41.50;;;0.80;99.90;;;;;;5028326;28;20036;-67
2022/12/15 13:05:29;;;;;;;80.40;38.38;;;0.80;99.90;;;;;;5025489;28;20463;-66
2022/12/15 13:08:17;;;;;;;81.90;39.55;;;0.80;99.90;;;;;;5028359;28;20076;-67
2022/12/15 13:10:45;;;;;;;85.68;38.53;;;0.90;99.90;;;;;;5029444;28;20068;-66
2022/12/15 13:13:30;;;;;;;79.38;38.92;;;0.90;99.90;;;;;;5034866;28;20029;-66
2022/12/15 13:16:24;;;;;;;64.05;32.67;;;0.90;99.90;;;;;;5031828;28;20033;-67
2022/12/15 13:19:08;;;;;;;75.15;40.13;;;1.00;99.90;;;;;;5027228;28;20021;-66
2022/12/15 13:21:40;;;;;;;64.30;34.15;;;1.00;99.90;;;;;;5027789;28;20501;-66
2022/12/15 13:24:32;;;;;;;70.15;36.50;;;1.00;99.90;;;;;;5029544;28;20463;-66
2022/12/15 13:27:07;;;;;;;72.90;38.83;;;1.10;99.90;;;;;;5026094;28;20029;-66
2022/12/15 13:29:35;;;;;;;70.40;35.90;;;1.10;99.90;;;;;;5029098;28;20036;-67
2022/12/15 13:32:01;;;;;;;75.43;37.13;;;1.10;99.90;;;;;;5030557;28;20022;-66
2022/12/15 13:34:34;;;;;;;69.70;38.13;;;1.20;99.90;;;;;;5029022;28;20031;-66
2022/12/15 13:37:00;;;;;;;74.82;39.38;;;1.20;99.90;;;;;;5018872;28;20383;-66
2022/12/15 13:39:29;;;;;;;74.57;39.58;;;1.20;99.90;;;;;;5024275;28;20352;-66
2022/12/15 13:41:54;;;;;;;72.93;39.40;;;1.20;99.90;;;;;;5030578;28;20048;-66
2022/12/15 13:44:23;;;;;;;71.85;38.95;;;1.20;99.90;;;;;;5021664;28;20025;-66
2022/12/15 13:46:51;;;;;;;70.88;34.08;;;1.20;99.90;;;;;;5029524;28;20615;-66
2022/12/15 13:49:28;;;;;;;78.20;37.38;;;1.20;99.90;;;;;;5033278;28;20036;-66
2022/12/15 13:52:13;;;;;;;71.25;34.03;;;1.30;99.90;;;;;;5024287;28;20042;-67
2022/12/15 13:54:41;;;;;;;75.60;36.47;;;1.30;99.90;;;;;;5029893;28;20061;-66
2022/12/15 13:57:16;;;;;;;70.40;36.90;;;1.30;99.90;;;;;;5026034;28;20037;-66
2022/12/15 14:00:04;;;;;;;111.28;36.97;;;1.40;99.90;;;;;;5027700;28;20108;-66
2022/12/15 14:02:35;;;;;;;73.32;36.33;;;1.30;99.90;;;;;;5030276;28;20211;-66
2022/12/15 14:05:24;;;;;;;69.25;36.72;;;1.20;99.90;;;;;;5022113;28;20488;-66
2022/12/15 14:07:59;;;;;;;77.30;40.05;;;1.10;99.90;;;;;;5023285;28;20041;-66
2022/12/15 14:10:46;;;;;;;77.50;39.35;;;1.10;99.90;;;;;;5028813;28;20037;-66
2022/12/15 14:13:15;;;;;;;76.88;39.30;;;1.20;99.90;;;;;;5040308;28;20029;-66
2022/12/15 14:15:45;;;;;;;75.47;40.35;;;1.20;99.90;;;;;;5024071;28;20045;-67
2022/12/15 14:18:31;;;;;;;79.13;39.28;;;1.20;99.90;;;;;;5029936;28;20960;-66
2022/12/15 14:20:58;;;;;;;74.13;37.38;;;1.10;99.90;;;;;;5021381;28;20021;-66
2022/12/15 14:23:27;;;;;;;78.53;39.65;;;1.10;99.90;;;;;;5024990;28;20373;-67
2022/12/15 14:26:03;;;;;;;84.60;43.13;;;1.00;99.90;;;;;;5028652;28;20063;-66
2022/12/15 14:28:31;;;;;;;74.78;38.22;;;1.00;99.90;;;;;;5031210;28;20029;-66
2022/12/15 14:31:06;;;;;;;72.97;37.20;;;1.00;99.90;;;;;;5030023;28;20029;-67
2022/12/15 14:33:35;;;;;;;74.63;37.67;;;1.10;99.90;;;;;;5023900;28;20033;-67
2022/12/15 14:36:06;;;;;;;69.13;35.17;;;1.20;99.90;;;;;;5022916;28;20076;-67
2022/12/15 14:38:41;;;;;;;77.45;38.53;;;1.20;99.90;;;;;;5023008;28;20029;-67
2022/12/15 14:41:12;;;;;;;83.50;38.65;;;1.20;99.90;;;;;;5025118;28;20462;-67
2022/12/15 14:43:39;;;;;;;76.25;38.38;;;1.10;99.90;;;;;;5032167;28;20041;-66
2022/12/15 14:46:14;;;;;;;78.53;37.55;;;1.00;99.90;;;;;;5023004;28;20067;-66
2022/12/15 14:48:50;;;;;;;74.85;36.53;;;1.00;99.90;;;;;;5019046;28;20490;-67
2022/12/15 14:51:16;;;;;;;76.32;38.10;;;0.90;99.90;;;;;;5029468;28;20105;-66
2022/12/15 14:53:47;;;;;;;71.78;36.20;;;1.00;99.90;;;;;;5031164;28;20038;-67
2022/12/15 14:56:19;;;;;;;79.97;38.95;;;1.00;99.90;;;;;;5030379;28;20053;-67
2022/12/15 14:58:58;;;;;;;79.28;38.03;;;1.00;99.90;;;;;;5020405;28;20056;-67
2022/12/15 15:01:39;;;;;;;81.95;39.92;;;1.00;99.90;;;;;;5023655;28;20100;-67
2022/12/15 15:04:21;;;;;;;79.57;38.08;;;1.00;99.90;;;;;;5020757;28;20022;-66
2022/12/15 15:06:53;;;;;;;75.68;35.45;;;1.00;99.90;;;;;;5026470;28;20087;-68
2022/12/15 15:09:25;;;;;;;78.20;38.13;;;0.90;99.90;;;;;;5023122;28;20375;-66
2022/12/15 15:12:05;;;;;;;84.57;39.33;;;0.80;99.90;;;;;;5023121;28;20032;-66
2022/12/15 15:14:43;;;;;;;77.38;38.72;;;0.80;99.90;;;;;;5029689;28;20044;-66